sensor_id;sensor_type;location;lat;lon;timestamp;pressure;altitude;pressure_sealevel;temperature;humidity
49341;BME280;35209;51.050;13.678;2023-02-12T00:04:51;101679.81;;;5.53;100.00
49341;BME280;35209;51.050;13.678;2023-02-12T00:09:52;101690.19;;;5.50;100.00
49341;BME280;35209;51.050;13.678;2023-02-12T00:14:54;101687.44;;;5.41;100.00
49341;BME280;35209;51.050;13.678;2023-02-12T00:19:56;101697.09;;;5.48;100.00
49341;BME280;35209;51.050;13.678;2023-02-12T00:24:57;101702.16;;;5.39;100.00
49341;BME280;35209;51.050;13.678;2023-02-12T00:29:59;101714.91;;;5.21;100.00
49341;BME280;35209;51.050;13.678;2023-02-12T00:35:01;101715.06;;;5.30;100.00
49341;BME280;35209;51.050;13.678;2023-02-12T00:40:03;101702.81;;;5.26;100.00
49341;BME280;35209;51.050;13.678;2023-02-12T00:45:05;101708.88;;;5.25;100.00
49341;BME280;35209;51.050;13.678;2023-02-12T00:50:07;101708.25;;;5.40;100.00
49341;BME280;35209;51.050;13.678;2023-02-12T00:55:09;101703.22;;;5.50;100.00
49341;BME280;35209;51.050;13.678;2023-02-12T01:00:12;101706.72;;;5.52;100.00
49341;BME280;35209;51.050;13.678;2023-02-12T01:05:14;101723.97;;;5.44;100.00
49341;BME280;35209;51.050;13.678;2023-02-12T01:10:16;101726.09;;;5.14;100.00
49341;BME280;35209;51.050;13.678;2023-02-12T01:15:18;101729.25;;;5.49;100.00
49341;BME280;35209;51.050;13.678;2023-02-12T01:20:22;101721.28;;;5.38;100.00
49341;BME280;35209;51.050;13.678;2023-02-12T01:25:24;101719.59;;;5.42;100.00
49341;BME280;35209;51.050;13.678;2023-02-12T01:30:27;101720.47;;;5.41;100.00
49341;BME280;35209;51.050;13.678;2023-02-12T01:35:29;101720.34;;;5.35;100.00
49341;BME280;35209;51.050;13.678;2023-02-12T01:40:31;101726.50;;;5.40;100.00
49341;BME280;35209;51.050;13.678;2023-02-12T01:45:37;101718.72;;;5.41;100.00
49341;BME280;35209;51.050;13.678;2023-02-12T01:50:45;101724.09;;;5.52;100.00
49341;BME280;35209;51.050;13.678;2023-02-12T01:55:50;101729.53;;;5.13;100.00
49341;BME280;35209;51.050;13.678;2023-02-12T02:00:54;101729.97;;;5.39;100.00
49341;BME280;35209;51.050;13.678;2023-02-12T02:06:05;101724.00;;;5.46;100.00
49341;BME280;35209;51.050;13.678;2023-02-12T02:11:08;101726.66;;;5.49;100.00
49341;BME280;35209;51.050;13.678;2023-02-12T02:16:33;101721.75;;;5.16;100.00
49341;BME280;35209;51.050;13.678;2023-02-12T02:21:50;101717.88;;;5.42;100.00
49341;BME280;35209;51.050;13.678;2023-02-12T02:32:26;101721.34;;;5.41;100.00
49341;BME280;35209;51.050;13.678;2023-02-12T02:38:05;101725.47;;;5.30;100.00
49341;BME280;35209;51.050;13.678;2023-02-12T02:43:22;101731.50;;;5.26;100.00
49341;BME280;35209;51.050;13.678;2023-02-12T02:48:34;101728.56;;;5.06;100.00
49341;BME280;35209;51.050;13.678;2023-02-12T02:53:44;101730.66;;;5.27;100.00
49341;BME280;35209;51.050;13.678;2023-02-12T02:58:54;101730.69;;;5.30;100.00
49341;BME280;35209;51.050;13.678;2023-02-12T03:04:06;101740.31;;;5.34;100.00
49341;BME280;35209;51.050;13.678;2023-02-12T03:14:31;101748.63;;;5.12;100.00
49341;BME280;35209;51.050;13.678;2023-02-12T03:19:41;101754.06;;;5.22;100.00
49341;BME280;35209;51.050;13.678;2023-02-12T03:25:00;101761.19;;;5.34;100.00
49341;BME280;35209;51.050;13.678;2023-02-12T03:30:06;101771.47;;;5.26;100.00
49341;BME280;35209;51.050;13.678;2023-02-12T03:40:22;101786.41;;;5.35;100.00
49341;BME280;35209;51.050;13.678;2023-02-12T03:51:27;101805.53;;;5.36;100.00
49341;BME280;35209;51.050;13.678;2023-02-12T03:56:41;101815.59;;;5.14;100.00
49341;BME280;35209;51.050;13.678;2023-02-12T04:01:44;101819.25;;;5.25;100.00
49341;BME280;35209;51.050;13.678;2023-02-12T04:06:48;101825.59;;;5.40;100.00
49341;BME280;35209;51.050;13.678;2023-02-12T04:12:09;101835.84;;;5.29;100.00
49341;BME280;35209;51.050;13.678;2023-02-12T04:17:32;101834.03;;;5.26;100.00
49341;BME280;35209;51.050;13.678;2023-02-12T04:33:14;101838.78;;;5.00;100.00
49341;BME280;35209;51.050;13.678;2023-02-12T04:38:26;101839.88;;;5.13;100.00
49341;BME280;35209;51.050;13.678;2023-02-12T04:43:33;101840.97;;;5.23;100.00
49341;BME280;35209;51.050;13.678;2023-02-12T04:48:49;101849.31;;;5.06;100.00
49341;BME280;35209;51.050;13.678;2023-02-12T04:53:52;101848.22;;;4.95;100.00
49341;BME280;35209;51.050;13.678;2023-02-12T04:58:54;101835.06;;;4.89;100.00
49341;BME280;35209;51.050;13.678;2023-02-12T05:03:58;101845.84;;;5.07;100.00
49341;BME280;35209;51.050;13.678;2023-02-12T05:09:00;101849.22;;;5.02;100.00
49341;BME280;35209;51.050;13.678;2023-02-12T05:14:01;101856.63;;;5.24;100.00
49341;BME280;35209;51.050;13.678;2023-02-12T05:19:03;101856.00;;;5.38;100.00
49341;BME280;35209;51.050;13.678;2023-02-12T05:24:05;101855.91;;;5.31;100.00
49341;BME280;35209;51.050;13.678;2023-02-12T05:29:07;101865.38;;;5.28;100.00
49341;BME280;35209;51.050;13.678;2023-02-12T05:34:10;101871.66;;;5.39;100.00
49341;BME280;35209;51.050;13.678;2023-02-12T05:39:12;101874.00;;;5.24;100.00
49341;BME280;35209;51.050;13.678;2023-02-12T05:44:14;101868.84;;;5.27;100.00
49341;BME280;35209;51.050;13.678;2023-02-12T05:49:16;101869.75;;;5.30;100.00
49341;BME280;35209;51.050;13.678;2023-02-12T05:54:17;101874.28;;;5.39;100.00
49341;BME280;35209;51.050;13.678;2023-02-12T05:59:21;101870.78;;;5.37;100.00
49341;BME280;35209;51.050;13.678;2023-02-12T06:04:25;101873.75;;;5.12;100.00
49341;BME280;35209;51.050;13.678;2023-02-12T06:09:27;101880.09;;;5.24;100.00
49341;BME280;35209;51.050;13.678;2023-02-12T06:14:29;101888.59;;;5.14;100.00
49341;BME280;35209;51.050;13.678;2023-02-12T06:19:32;101892.06;;;5.15;100.00
49341;BME280;35209;51.050;13.678;2023-02-12T06:24:34;101903.38;;;5.15;100.00
49341;BME280;35209;51.050;13.678;2023-02-12T06:29:37;101901.38;;;5.03;100.00
49341;BME280;35209;51.050;13.678;2023-02-12T06:34:39;101918.69;;;5.00;100.00
49341;BME280;35209;51.050;13.678;2023-02-12T06:39:41;101928.22;;;4.99;100.00
49341;BME280;35209;51.050;13.678;2023-02-12T06:44:42;101926.72;;;5.09;100.00
49341;BME280;35209;51.050;13.678;2023-02-12T06:49:44;101935.81;;;5.29;100.00
49341;BME280;35209;51.050;13.678;2023-02-12T06:54:46;101943.72;;;5.32;100.00
49341;BME280;35209;51.050;13.678;2023-02-12T06:59:48;101946.03;;;5.19;100.00
49341;BME280;35209;51.050;13.678;2023-02-12T07:04:50;101953.69;;;5.11;100.00
49341;BME280;35209;51.050;13.678;2023-02-12T07:09:52;101951.28;;;5.20;100.00
49341;BME280;35209;51.050;13.678;2023-02-12T07:14:53;101961.69;;;5.19;100.00
49341;BME280;35209;51.050;13.678;2023-02-12T07:19:55;101960.44;;;5.01;100.00
49341;BME280;35209;51.050;13.678;2023-02-12T07:24:57;101969.97;;;5.01;100.00
49341;BME280;35209;51.050;13.678;2023-02-12T07:29:59;101973.19;;;5.30;100.00
49341;BME280;35209;51.050;13.678;2023-02-12T07:35:01;101969.97;;;5.42;100.00
49341;BME280;35209;51.050;13.678;2023-02-12T07:40:03;101976.78;;;5.35;100.00
49341;BME280;35209;51.050;13.678;2023-02-12T07:45:05;101974.81;;;5.25;100.00
49341;BME280;35209;51.050;13.678;2023-02-12T07:50:08;101973.44;;;5.41;100.00
49341;BME280;35209;51.050;13.678;2023-02-12T07:55:10;101982.06;;;5.38;100.00
49341;BME280;35209;51.050;13.678;2023-02-12T08:00:12;101980.88;;;5.66;100.00
49341;BME280;35209;51.050;13.678;2023-02-12T08:05:14;101990.44;;;5.66;100.00
49341;BME280;35209;51.050;13.678;2023-02-12T08:10:16;101999.19;;;5.69;100.00
49341;BME280;35209;51.050;13.678;2023-02-12T08:15:20;101999.38;;;5.78;100.00
49341;BME280;35209;51.050;13.678;2023-02-12T08:20:22;102001.78;;;5.68;100.00
49341;BME280;35209;51.050;13.678;2023-02-12T08:25:24;102014.00;;;5.70;100.00
49341;BME280;35209;51.050;13.678;2023-02-12T08:30:25;102003.56;;;5.70;100.00
49341;BME280;35209;51.050;13.678;2023-02-12T08:35:27;102006.53;;;5.89;100.00
49341;BME280;35209;51.050;13.678;2023-02-12T08:40:29;102007.97;;;5.71;100.00
49341;BME280;35209;51.050;13.678;2023-02-12T08:45:31;102018.69;;;5.44;100.00
49341;BME280;35209;51.050;13.678;2023-02-12T08:50:33;102028.03;;;5.35;100.00
49341;BME280;35209;51.050;13.678;2023-02-12T08:55:35;102026.31;;;5.35;100.00
49341;BME280;35209;51.050;13.678;2023-02-12T09:00:37;102036.75;;;5.35;100.00
49341;BME280;35209;51.050;13.678;2023-02-12T09:05:41;102039.50;;;5.41;100.00
49341;BME280;35209;51.050;13.678;2023-02-12T09:10:43;102048.72;;;6.09;100.00
49341;BME280;35209;51.050;13.678;2023-02-12T09:15:45;102047.69;;;6.00;100.00
49341;BME280;35209;51.050;13.678;2023-02-12T09:20:47;102059.66;;;5.91;100.00
49341;BME280;35209;51.050;13.678;2023-02-12T09:25:49;102058.91;;;5.96;100.00
49341;BME280;35209;51.050;13.678;2023-02-12T09:30:51;102064.53;;;6.16;100.00
49341;BME280;35209;51.050;13.678;2023-02-12T09:35:53;102062.19;;;6.30;100.00
49341;BME280;35209;51.050;13.678;2023-02-12T09:51:14;102072.50;;;6.24;100.00
49341;BME280;35209;51.050;13.678;2023-02-12T09:56:18;102082.75;;;6.62;100.00
49341;BME280;35209;51.050;13.678;2023-02-12T10:01:21;102089.31;;;6.88;100.00
49341;BME280;35209;51.050;13.678;2023-02-12T10:06:45;102083.13;;;6.83;100.00
49341;BME280;35209;51.050;13.678;2023-02-12T10:12:15;102086.88;;;7.00;100.00
49341;BME280;35209;51.050;13.678;2023-02-12T10:28:00;102088.09;;;7.24;100.00
49341;BME280;35209;51.050;13.678;2023-02-12T10:33:08;102081.00;;;7.14;100.00
49341;BME280;35209;51.050;13.678;2023-02-12T10:38:18;102075.16;;;7.34;100.00
49341;BME280;35209;51.050;13.678;2023-02-12T10:43:20;102074.47;;;7.46;100.00
49341;BME280;35209;51.050;13.678;2023-02-12T10:48:26;102085.50;;;7.24;100.00
49341;BME280;35209;51.050;13.678;2023-02-12T10:53:39;102080.28;;;7.25;100.00
49341;BME280;35209;51.050;13.678;2023-02-12T10:59:02;102081.56;;;7.53;100.00
49341;BME280;35209;51.050;13.678;2023-02-12T11:04:26;102080.47;;;7.38;100.00
49341;BME280;35209;51.050;13.678;2023-02-12T11:09:38;102079.03;;;7.61;100.00
49341;BME280;35209;51.050;13.678;2023-02-12T11:14:54;102067.66;;;7.57;100.00
49341;BME280;35209;51.050;13.678;2023-02-12T11:25:14;102060.81;;;7.69;99.01
49341;BME280;35209;51.050;13.678;2023-02-12T11:30:19;102059.94;;;7.70;100.00
49341;BME280;35209;51.050;13.678;2023-02-12T11:35:23;102058.50;;;7.93;95.65
49341;BME280;35209;51.050;13.678;2023-02-12T11:40:29;102054.78;;;7.76;99.00
49341;BME280;35209;51.050;13.678;2023-02-12T11:45:48;102064.19;;;7.58;100.00
49341;BME280;35209;51.050;13.678;2023-02-12T11:50:55;102058.00;;;7.55;100.00
49341;BME280;35209;51.050;13.678;2023-02-12T11:56:03;102064.34;;;7.71;98.25
49341;BME280;35209;51.050;13.678;2023-02-12T12:01:26;102067.13;;;7.19;100.00
49341;BME280;35209;51.050;13.678;2023-02-12T12:06:35;102054.41;;;7.47;98.35
49341;BME280;35209;51.050;13.678;2023-02-12T12:12:01;102057.81;;;7.40;99.44
49341;BME280;35209;51.050;13.678;2023-02-12T12:17:12;102053.28;;;7.26;100.00
49341;BME280;35209;51.050;13.678;2023-02-12T12:22:45;102053.53;;;7.45;100.00
49341;BME280;35209;51.050;13.678;2023-02-12T12:27:55;102051.06;;;7.57;97.90
49341;BME280;35209;51.050;13.678;2023-02-12T12:33:21;102046.38;;;7.34;99.42
49341;BME280;35209;51.050;13.678;2023-02-12T12:38:33;102048.13;;;7.34;100.00
49341;BME280;35209;51.050;13.678;2023-02-12T12:43:54;102044.69;;;7.35;100.00
49341;BME280;35209;51.050;13.678;2023-02-12T12:49:28;102036.66;;;7.23;100.00
49341;BME280;35209;51.050;13.678;2023-02-12T13:21:50;102033.19;;;7.25;100.00
49341;BME280;35209;51.050;13.678;2023-02-12T13:27:01;102036.47;;;7.11;100.00
49341;BME280;35209;51.050;13.678;2023-02-12T13:32:13;102028.66;;;7.12;100.00
49341;BME280;35209;51.050;13.678;2023-02-12T13:37:20;102024.88;;;6.92;100.00
49341;BME280;35209;51.050;13.678;2023-02-12T13:48:30;102031.88;;;6.94;100.00
49341;BME280;35209;51.050;13.678;2023-02-12T13:53:49;102019.22;;;7.25;100.00
49341;BME280;35209;51.050;13.678;2023-02-12T13:58:56;102027.22;;;7.34;100.00
49341;BME280;35209;51.050;13.678;2023-02-12T14:04:40;102024.34;;;7.14;100.00
49341;BME280;35209;51.050;13.678;2023-02-12T14:09:58;102029.63;;;7.20;100.00
49341;BME280;35209;51.050;13.678;2023-02-12T14:15:08;102029.75;;;7.26;100.00
49341;BME280;35209;51.050;13.678;2023-02-12T14:20:26;102035.97;;;7.36;100.00
49341;BME280;35209;51.050;13.678;2023-02-12T14:25:32;102032.38;;;7.28;100.00
49341;BME280;35209;51.050;13.678;2023-02-12T14:30:38;102031.63;;;7.38;100.00
49341;BME280;35209;51.050;13.678;2023-02-12T14:35:42;102038.47;;;7.30;100.00
49341;BME280;35209;51.050;13.678;2023-02-12T14:40:49;102033.94;;;7.17;100.00
49341;BME280;35209;51.050;13.678;2023-02-12T14:45:51;102039.28;;;7.23;100.00
49341;BME280;35209;51.050;13.678;2023-02-12T14:50:54;102040.75;;;7.05;100.00
49341;BME280;35209;51.050;13.678;2023-02-12T14:55:57;102039.22;;;7.21;100.00
49341;BME280;35209;51.050;13.678;2023-02-12T15:01:01;102053.03;;;7.11;100.00
49341;BME280;35209;51.050;13.678;2023-02-12T15:06:13;102045.31;;;7.17;100.00
49341;BME280;35209;51.050;13.678;2023-02-12T15:17:07;102048.16;;;6.76;100.00
49341;BME280;35209;51.050;13.678;2023-02-12T15:22:43;102052.34;;;6.67;100.00
49341;BME280;35209;51.050;13.678;2023-02-12T15:27:47;102046.81;;;7.01;100.00
49341;BME280;35209;51.050;13.678;2023-02-12T15:32:50;102046.81;;;7.01;100.00
49341;BME280;35209;51.050;13.678;2023-02-12T15:37:53;102049.00;;;6.74;100.00
49341;BME280;35209;51.050;13.678;2023-02-12T15:42:58;102050.75;;;6.75;100.00
49341;BME280;35209;51.050;13.678;2023-02-12T15:53:09;102051.03;;;6.42;100.00
49341;BME280;35209;51.050;13.678;2023-02-12T15:58:47;102052.59;;;6.30;100.00
49341;BME280;35209;51.050;13.678;2023-02-12T16:03:51;102046.38;;;6.24;100.00
49341;BME280;35209;51.050;13.678;2023-02-12T16:09:06;102054.13;;;6.19;100.00
49341;BME280;35209;51.050;13.678;2023-02-12T16:14:25;102048.16;;;6.25;100.00
49341;BME280;35209;51.050;13.678;2023-02-12T16:19:29;102049.81;;;6.20;100.00
49341;BME280;35209;51.050;13.678;2023-02-12T16:24:39;102058.38;;;6.13;100.00
49341;BME280;35209;51.050;13.678;2023-02-12T16:35:33;102072.06;;;6.01;100.00
49341;BME280;35209;51.050;13.678;2023-02-12T16:40:36;102073.69;;;5.96;100.00
49341;BME280;35209;51.050;13.678;2023-02-12T16:45:39;102084.00;;;5.90;100.00
49341;BME280;35209;51.050;13.678;2023-02-12T16:50:48;102084.94;;;5.92;100.00
49341;BME280;35209;51.050;13.678;2023-02-12T16:55:53;102079.19;;;6.10;100.00
49341;BME280;35209;51.050;13.678;2023-02-12T17:00:57;102076.03;;;6.26;100.00
49341;BME280;35209;51.050;13.678;2023-02-12T17:06:01;102082.75;;;6.15;100.00
49341;BME280;35209;51.050;13.678;2023-02-12T17:11:03;102087.53;;;6.36;100.00
49341;BME280;35209;51.050;13.678;2023-02-12T17:16:04;102084.81;;;6.29;100.00
49341;BME280;35209;51.050;13.678;2023-02-12T17:21:30;102083.94;;;6.29;100.00
49341;BME280;35209;51.050;13.678;2023-02-12T17:26:38;102102.94;;;6.23;100.00
49341;BME280;35209;51.050;13.678;2023-02-12T17:31:40;102100.59;;;6.37;100.00
49341;BME280;35209;51.050;13.678;2023-02-12T17:36:41;102103.03;;;6.26;100.00
49341;BME280;35209;51.050;13.678;2023-02-12T17:41:43;102102.00;;;6.18;100.00
49341;BME280;35209;51.050;13.678;2023-02-12T17:46:45;102104.75;;;6.24;100.00
49341;BME280;35209;51.050;13.678;2023-02-12T17:51:47;102119.09;;;6.02;100.00
49341;BME280;35209;51.050;13.678;2023-02-12T17:56:49;102118.69;;;6.25;100.00
49341;BME280;35209;51.050;13.678;2023-02-12T18:01:50;102117.19;;;6.39;100.00
49341;BME280;35209;51.050;13.678;2023-02-12T18:06:52;102130.34;;;6.44;100.00
49341;BME280;35209;51.050;13.678;2023-02-12T18:11:54;102126.53;;;6.28;100.00
49341;BME280;35209;51.050;13.678;2023-02-12T18:16:56;102127.91;;;6.07;100.00
49341;BME280;35209;51.050;13.678;2023-02-12T18:21:57;102131.56;;;6.16;100.00
49341;BME280;35209;51.050;13.678;2023-02-12T18:27:00;102130.19;;;6.36;100.00
49341;BME280;35209;51.050;13.678;2023-02-12T18:32:02;102131.41;;;6.10;100.00
49341;BME280;35209;51.050;13.678;2023-02-12T18:37:04;102129.13;;;6.25;100.00
49341;BME280;35209;51.050;13.678;2023-02-12T18:42:06;102125.16;;;6.01;100.00
49341;BME280;35209;51.050;13.678;2023-02-12T18:47:08;102121.72;;;6.04;100.00
49341;BME280;35209;51.050;13.678;2023-02-12T18:52:09;102121.13;;;6.17;100.00
49341;BME280;35209;51.050;13.678;2023-02-12T18:57:11;102109.72;;;6.12;100.00
49341;BME280;35209;51.050;13.678;2023-02-12T19:02:15;102117.50;;;6.11;100.00
49341;BME280;35209;51.050;13.678;2023-02-12T19:07:17;102106.75;;;5.95;100.00
49341;BME280;35209;51.050;13.678;2023-02-12T19:12:19;102104.44;;;5.70;100.00
49341;BME280;35209;51.050;13.678;2023-02-12T19:17:21;102112.34;;;5.71;100.00
49341;BME280;35209;51.050;13.678;2023-02-12T19:22:23;102108.00;;;5.72;100.00
49341;BME280;35209;51.050;13.678;2023-02-12T19:27:25;102104.63;;;5.77;100.00
49341;BME280;35209;51.050;13.678;2023-02-12T19:32:27;102096.97;;;5.85;100.00
49341;BME280;35209;51.050;13.678;2023-02-12T19:37:29;102097.75;;;5.82;100.00
49341;BME280;35209;51.050;13.678;2023-02-12T19:42:33;102099.22;;;5.68;100.00
49341;BME280;35209;51.050;13.678;2023-02-12T19:47:34;102094.56;;;5.55;100.00
49341;BME280;35209;51.050;13.678;2023-02-12T19:52:36;102094.31;;;5.44;100.00
49341;BME280;35209;51.050;13.678;2023-02-12T19:57:42;102091.56;;;5.37;100.00
49341;BME280;35209;51.050;13.678;2023-02-12T20:02:46;102102.03;;;5.38;100.00
49341;BME280;35209;51.050;13.678;2023-02-12T20:07:49;102098.84;;;5.51;100.00
49341;BME280;35209;51.050;13.678;2023-02-12T20:12:51;102092.78;;;5.52;100.00
49341;BME280;35209;51.050;13.678;2023-02-12T20:17:53;102084.41;;;5.28;100.00
49341;BME280;35209;51.050;13.678;2023-02-12T20:22:55;102087.91;;;5.28;100.00
49341;BME280;35209;51.050;13.678;2023-02-12T20:27:58;102092.53;;;5.42;100.00
49341;BME280;35209;51.050;13.678;2023-02-12T20:33:00;102094.75;;;5.23;100.00
49341;BME280;35209;51.050;13.678;2023-02-12T20:38:04;102102.19;;;5.08;100.00
49341;BME280;35209;51.050;13.678;2023-02-12T20:43:06;102102.31;;;5.13;100.00
49341;BME280;35209;51.050;13.678;2023-02-12T20:48:08;102099.78;;;5.16;100.00
49341;BME280;35209;51.050;13.678;2023-02-12T20:53:10;102113.31;;;5.37;100.00
49341;BME280;35209;51.050;13.678;2023-02-12T20:58:12;102103.25;;;5.16;100.00
49341;BME280;35209;51.050;13.678;2023-02-12T21:03:14;102098.75;;;5.09;100.00
49341;BME280;35209;51.050;13.678;2023-02-12T21:08:16;102094.00;;;5.29;100.00
49341;BME280;35209;51.050;13.678;2023-02-12T21:13:17;102097.09;;;5.13;100.00
49341;BME280;35209;51.050;13.678;2023-02-12T21:18:19;102103.00;;;5.05;100.00
49341;BME280;35209;51.050;13.678;2023-02-12T21:23:26;102096.03;;;5.04;100.00
49341;BME280;35209;51.050;13.678;2023-02-12T21:28:28;102102.41;;;5.17;100.00
49341;BME280;35209;51.050;13.678;2023-02-12T21:33:30;102101.22;;;5.03;100.00
49341;BME280;35209;51.050;13.678;2023-02-12T21:38:37;102102.97;;;5.04;100.00
49341;BME280;35209;51.050;13.678;2023-02-12T21:43:41;102106.22;;;4.95;100.00
49341;BME280;35209;51.050;13.678;2023-02-12T21:48:44;102107.41;;;5.08;100.00
49341;BME280;35209;51.050;13.678;2023-02-12T21:53:47;102105.53;;;5.02;100.00
49341;BME280;35209;51.050;13.678;2023-02-12T21:58:49;102097.28;;;5.20;100.00
49341;BME280;35209;51.050;13.678;2023-02-12T22:03:51;102095.34;;;5.13;100.00
49341;BME280;35209;51.050;13.678;2023-02-12T22:08:54;102093.78;;;5.20;100.00
49341;BME280;35209;51.050;13.678;2023-02-12T22:13:56;102091.09;;;4.80;100.00
49341;BME280;35209;51.050;13.678;2023-02-12T22:18:59;102097.91;;;4.74;100.00
49341;BME280;35209;51.050;13.678;2023-02-12T22:24:04;102113.41;;;4.69;100.00
49341;BME280;35209;51.050;13.678;2023-02-12T22:29:08;102107.59;;;4.79;100.00
49341;BME280;35209;51.050;13.678;2023-02-12T22:34:16;102110.94;;;4.74;100.00
49341;BME280;35209;51.050;13.678;2023-02-12T22:39:19;102113.66;;;4.78;100.00
49341;BME280;35209;51.050;13.678;2023-02-12T22:44:22;102105.53;;;5.02;100.00
49341;BME280;35209;51.050;13.678;2023-02-12T22:49:25;102117.31;;;4.87;100.00
49341;BME280;35209;51.050;13.678;2023-02-12T22:54:27;102112.56;;;5.05;100.00
49341;BME280;35209;51.050;13.678;2023-02-12T22:59:29;102109.03;;;5.03;100.00
49341;BME280;35209;51.050;13.678;2023-02-12T23:04:31;102103.00;;;5.05;100.00
49341;BME280;35209;51.050;13.678;2023-02-12T23:09:32;102111.50;;;4.97;100.00
49341;BME280;35209;51.050;13.678;2023-02-12T23:14:34;102107.16;;;4.97;100.00
49341;BME280;35209;51.050;13.678;2023-02-12T23:19:36;102098.22;;;5.22;100.00
49341;BME280;35209;51.050;13.678;2023-02-12T23:24:38;102089.03;;;5.03;100.00
49341;BME280;35209;51.050;13.678;2023-02-12T23:29:40;102091.75;;;5.06;100.00
49341;BME280;35209;51.050;13.678;2023-02-12T23:34:41;102090.75;;;5.01;100.00
49341;BME280;35209;51.050;13.678;2023-02-12T23:39:43;102082.72;;;4.92;100.00
49341;BME280;35209;51.050;13.678;2023-02-12T23:44:45;102087.06;;;4.93;100.00
49341;BME280;35209;51.050;13.678;2023-02-12T23:49:47;102085.25;;;4.89;100.00
49341;BME280;35209;51.050;13.678;2023-02-12T23:54:48;102080.53;;;5.09;100.00
49341;BME280;35209;51.050;13.678;2023-02-12T23:59:50;102072.63;;;5.07;100.00
